createdAt,value
2022-09-03T00:00:44.621Z,97679.13
2022-09-03T00:03:23.270Z,97675.38
2022-09-03T00:06:13.008Z,97670.78
2022-09-03T00:08:51.186Z,97668.06
2022-09-03T00:11:30.858Z,97669.41
2022-09-03T00:14:06.901Z,97666.66
2022-09-03T00:16:49.169Z,97660.53
2022-09-03T00:19:24.818Z,97648.22
2022-09-03T00:22:01.946Z,97644.94
2022-09-03T00:24:40.910Z,97653.72
2022-09-03T00:27:20.475Z,97656.13
2022-09-03T00:29:57.924Z,97655.03
2022-09-03T00:32:35.309Z,97648.94
2022-09-03T00:35:14.069Z,97652.56
2022-09-03T00:37:44.057Z,97649.78
2022-09-03T00:40:35.378Z,97654.91
2022-09-03T00:43:21.255Z,97662.91
2022-09-03T00:46:05.326Z,97651.91
2022-09-03T00:48:51.122Z,97656.00
2022-09-03T00:51:37.289Z,97653.16
2022-09-03T00:54:21.994Z,97658.94
2022-09-03T00:57:06.125Z,97647.06
2022-09-03T00:59:51.861Z,97649.16
2022-09-03T01:02:33.602Z,97657.72
2022-09-03T01:05:14.436Z,97653.56
2022-09-03T01:07:58.676Z,97648.72
2022-09-03T01:10:39.726Z,97653.56
2022-09-03T01:13:17.969Z,97641.72
2022-09-03T01:16:06.435Z,97648.72
2022-09-03T01:18:49.495Z,97645.59
2022-09-03T01:22:04.263Z,97639.84
2022-09-03T01:25:15.204Z,97646.53
2022-09-03T01:28:13.617Z,97640.84
2022-09-03T01:30:49.339Z,97640.84
2022-09-03T01:33:31.640Z,97640.28
2022-09-03T01:36:19.458Z,97648.03
2022-09-03T01:38:59.044Z,97653.88
2022-09-03T01:42:03.699Z,97655.25
2022-09-03T01:45:06.554Z,97661.41
2022-09-03T01:47:54.722Z,97657.22
2022-09-03T01:50:42.041Z,97661.88
2022-09-03T01:53:30.834Z,97660.09
2022-09-03T01:56:22.015Z,97662.63
2022-09-03T01:59:03.948Z,97662.97
2022-09-03T02:01:44.474Z,97656.84
2022-09-03T02:04:23.606Z,97658.09
2022-09-03T02:06:54.818Z,97656.00
2022-09-03T02:09:24.771Z,97667.34
2022-09-03T02:12:11.246Z,97665.00
2022-09-03T02:14:41.359Z,97669.56
2022-09-03T02:17:14.724Z,97667.00
2022-09-03T02:19:45.571Z,97677.84
2022-09-03T02:22:16.272Z,97679.34
2022-09-03T02:24:46.719Z,97674.69
2022-09-03T02:27:16.999Z,97678.28
2022-09-03T02:29:47.146Z,97674.38
2022-09-03T02:32:19.730Z,97681.34
2022-09-03T02:34:49.709Z,97679.97
2022-09-03T02:37:22.498Z,97673.28
2022-09-03T02:39:53.359Z,97669.44
2022-09-03T02:42:23.463Z,97669.63
2022-09-03T02:45:00.631Z,97665.13
2022-09-03T02:47:36.977Z,97667.38
2022-09-03T02:50:07.684Z,97662.88
2022-09-03T02:52:37.623Z,97657.13
2022-09-03T02:55:09.955Z,97652.59
2022-09-03T02:57:39.896Z,97660.72
2022-09-03T03:00:12.368Z,97669.59
2022-09-03T03:02:45.614Z,97665.88
2022-09-03T03:05:38.689Z,97671.91
2022-09-03T03:08:09.043Z,97672.16
2022-09-03T03:10:38.988Z,97675.56
2022-09-03T03:13:08.904Z,97679.88
2022-09-03T03:15:39.003Z,97672.84
2022-09-03T03:18:14.152Z,97674.09
2022-09-03T03:20:48.248Z,97677.03
2022-09-03T03:23:18.404Z,97678.22
2022-09-03T03:25:48.397Z,97680.78
2022-09-03T03:28:20.638Z,97676.72
2022-09-03T03:30:51.172Z,97681.00
2022-09-03T03:33:23.743Z,97686.84
2022-09-03T03:35:53.968Z,97678.00
2022-09-03T03:38:24.034Z,97679.94
2022-09-03T03:40:54.047Z,97694.25
2022-09-03T03:43:24.014Z,97678.38
2022-09-03T03:46:00.444Z,97676.38
2022-09-03T03:48:33.206Z,97679.41
2022-09-03T03:51:04.992Z,97688.81
2022-09-03T03:53:35.583Z,97685.78
2022-09-03T03:56:09.765Z,97692.16
2022-09-03T03:58:44.073Z,97696.94
2022-09-03T04:01:17.792Z,97691.06
2022-09-03T04:03:51.034Z,97698.69
2022-09-03T04:06:23.295Z,97694.97
2022-09-03T04:08:53.780Z,97693.88
2022-09-03T04:11:26.530Z,97689.38
2022-09-03T04:13:57.360Z,97689.59
2022-09-03T04:16:29.732Z,97693.03
2022-09-03T04:19:02.339Z,97691.22
2022-09-03T04:21:33.810Z,97691.56
2022-09-03T04:24:03.743Z,97692.06
2022-09-03T04:26:36.010Z,97688.03
2022-09-03T04:29:09.021Z,97686.03
2022-09-03T04:32:01.203Z,97684.75
2022-09-03T04:34:33.739Z,97685.94
2022-09-03T04:37:03.650Z,97691.78
2022-09-03T04:39:33.670Z,97696.69
2022-09-03T04:42:03.610Z,97701.50
2022-09-03T04:44:34.452Z,97697.94
2022-09-03T04:47:04.804Z,97701.84
2022-09-03T04:49:37.372Z,97698.25
2022-09-03T04:52:07.387Z,97694.34
2022-09-03T04:54:37.551Z,97696.22
2022-09-03T04:57:07.917Z,97701.19
2022-09-03T04:59:37.864Z,97699.94
2022-09-03T05:02:08.348Z,97701.09
2022-09-03T05:04:40.962Z,97704.31
2022-09-03T05:07:11.573Z,97699.25
2022-09-03T05:09:41.516Z,97692.59
2022-09-03T05:12:13.176Z,97696.28
2022-09-03T05:14:43.436Z,97694.78
2022-09-03T05:17:13.401Z,97693.69
2022-09-03T05:19:45.939Z,97698.84
2022-09-03T05:22:21.296Z,97698.84
2022-09-03T05:24:51.831Z,97695.88
2022-09-03T05:27:21.772Z,97691.03
2022-09-03T05:29:51.710Z,97699.19
2022-09-03T05:32:21.657Z,97700.19
2022-09-03T05:34:54.487Z,97702.44
2022-09-03T05:37:24.940Z,97707.44
2022-09-03T05:39:54.983Z,97700.13
2022-09-03T05:42:25.951Z,97701.50
2022-09-03T05:44:56.088Z,97703.66
2022-09-03T05:47:26.081Z,97708.91
2022-09-03T05:49:58.568Z,97713.16
2022-09-03T05:52:28.612Z,97710.66
2022-09-03T05:54:58.544Z,97712.84
2022-09-03T05:57:29.728Z,97718.13
2022-09-03T06:00:00.365Z,97719.81
2022-09-03T06:02:30.450Z,97719.84
2022-09-03T06:05:03.119Z,97721.25
2022-09-03T06:07:34.239Z,97720.28
2022-09-03T06:10:04.912Z,97721.94
2022-09-03T06:12:35.886Z,97729.66
2022-09-03T06:15:06.134Z,97728.63
2022-09-03T06:17:36.082Z,97730.72
2022-09-03T06:20:10.660Z,97722.16
2022-09-03T06:22:40.745Z,97724.00
2022-09-03T06:25:12.206Z,97727.91
2022-09-03T06:27:42.140Z,97722.06
2022-09-03T06:30:13.908Z,97726.00
2022-09-03T06:32:47.342Z,97728.47
2022-09-03T06:35:20.037Z,97729.03
2022-09-03T06:37:52.126Z,97737.13
2022-09-03T06:40:23.618Z,97733.72
2022-09-03T06:43:02.048Z,97730.13
2022-09-03T06:45:32.557Z,97731.19
2022-09-03T06:48:02.560Z,97734.50
2022-09-03T06:50:35.482Z,97729.88
2022-09-03T06:53:06.221Z,97734.81
2022-09-03T06:55:40.040Z,97735.09
2022-09-03T06:58:10.844Z,97732.84
2022-09-03T07:00:40.854Z,97732.38
2022-09-03T07:03:10.835Z,97737.00
2022-09-03T07:05:43.571Z,97735.16
2022-09-03T07:08:13.697Z,97736.97
2022-09-03T07:10:43.819Z,97734.81
2022-09-03T07:13:13.946Z,97741.00
2022-09-03T07:15:44.040Z,97733.72
2022-09-03T07:18:14.067Z,97730.16
2022-09-03T07:20:46.692Z,97736.47
2022-09-03T07:23:16.727Z,97741.91
2022-09-03T07:25:46.984Z,97737.00
2022-09-03T07:28:17.040Z,97737.00
2022-09-03T07:30:47.231Z,97739.31
2022-09-03T07:33:17.537Z,97737.41
2022-09-03T07:35:50.706Z,97732.50
2022-09-03T07:38:24.025Z,97738.16
2022-09-03T07:41:01.860Z,97735.16
2022-09-03T07:43:36.005Z,97738.22
2022-09-03T07:46:07.068Z,97741.28
2022-09-03T07:48:37.763Z,97736.88
2022-09-03T07:51:11.167Z,97750.50
2022-09-03T07:53:41.144Z,97736.81
2022-09-03T07:56:13.394Z,97750.09
2022-09-03T07:58:44.510Z,97752.91
2022-09-03T08:01:17.956Z,97752.94
2022-09-03T08:03:51.845Z,97748.13
2022-09-03T08:06:26.732Z,97745.47
2022-09-03T08:09:04.900Z,97750.50
2022-09-03T08:11:39.655Z,97749.63
2022-09-03T08:14:12.220Z,97773.13
2022-09-03T08:16:44.719Z,97765.63
2022-09-03T08:19:14.961Z,97758.75
2022-09-03T08:21:47.611Z,97766.97
2022-09-03T08:24:21.329Z,97764.59
2022-09-03T08:26:52.583Z,97757.56
2022-09-03T08:29:24.286Z,97750.78
2022-09-03T08:31:54.595Z,97751.06
2022-09-03T08:34:25.083Z,97758.13
2022-09-03T08:37:01.465Z,97753.81
2022-09-03T08:39:31.721Z,97762.53
2022-09-03T08:42:20.537Z,97759.75
2022-09-03T08:44:58.253Z,97768.41
2022-09-03T08:47:37.348Z,97770.13
2022-09-03T08:50:19.430Z,97772.69
2022-09-03T08:52:59.605Z,97779.97
2022-09-03T08:55:34.498Z,97777.25
2022-09-03T08:58:14.190Z,97776.78
2022-09-03T09:01:01.362Z,97771.25
2022-09-03T09:03:47.243Z,97771.72
2022-09-03T09:06:26.427Z,97769.31
2022-09-03T09:09:20.583Z,97777.31
2022-09-03T09:12:04.303Z,97772.09
2022-09-03T09:14:43.325Z,97769.25
2022-09-03T09:17:34.513Z,97776.91
2022-09-03T09:20:12.565Z,97775.56
2022-09-03T09:22:47.616Z,97771.44
2022-09-03T09:25:24.408Z,97776.09
2022-09-03T09:28:01.635Z,97775.13
2022-09-03T09:30:34.712Z,97776.03
2022-09-03T09:33:04.962Z,97778.88
2022-09-03T09:35:35.154Z,97765.31
2022-09-03T09:38:05.320Z,97766.53
2022-09-03T09:40:44.860Z,97767.44
2022-09-03T09:43:21.058Z,97761.78
2022-09-03T09:45:54.100Z,97768.38
2022-09-03T09:48:31.660Z,97761.31
2022-09-03T09:51:12.523Z,97768.22
2022-09-03T09:53:45.002Z,97758.59
2022-09-03T09:56:28.418Z,97757.44
2022-09-03T09:59:08.006Z,97770.63
2022-09-03T10:01:41.917Z,97767.47
2022-09-03T10:04:15.079Z,97764.97
2022-09-03T10:06:59.646Z,97758.44
2022-09-03T10:09:32.722Z,97761.88
2022-09-03T10:12:19.735Z,97759.38
2022-09-03T10:14:58.391Z,97760.78
2022-09-03T10:17:39.634Z,97755.47
2022-09-03T10:20:29.535Z,97760.63
2022-09-03T10:23:06.181Z,97765.28
2022-09-03T10:25:47.940Z,97761.06
2022-09-03T10:28:23.386Z,97767.19
2022-09-03T10:31:21.547Z,97763.84
2022-09-03T10:33:59.473Z,97759.81
2022-09-03T10:36:54.590Z,97756.72
2022-09-03T10:39:42.671Z,97761.50
2022-09-03T10:42:38.258Z,97760.41
2022-09-03T10:45:22.285Z,97768.50
2022-09-03T10:48:34.991Z,97757.41
2022-09-03T10:51:09.306Z,97763.06
2022-09-03T10:54:13.781Z,97763.75
2022-09-03T10:56:57.184Z,97758.75
2022-09-03T11:00:05.957Z,97744.28
2022-09-03T11:03:28.443Z,97742.34
2022-09-03T11:06:07.672Z,97743.56
2022-09-03T11:08:46.336Z,97746.84
2022-09-03T11:11:26.625Z,97735.19
2022-09-03T11:14:05.334Z,97736.25
2022-09-03T11:16:41.601Z,97734.66
2022-09-03T11:19:20.262Z,97728.41
2022-09-03T11:21:53.874Z,97740.31
2022-09-03T11:24:28.026Z,97731.28
2022-09-03T11:27:08.634Z,97732.44
2022-09-03T11:29:52.619Z,97714.19
2022-09-03T11:32:31.980Z,97711.69
2022-09-03T11:35:04.598Z,97709.84
2022-09-03T11:37:35.239Z,97711.22
2022-09-03T11:40:17.503Z,97709.84
2022-09-03T11:42:48.968Z,97720.28
2022-09-03T11:45:38.989Z,97714.59
2022-09-03T11:48:39.776Z,97713.59
2022-09-03T11:51:35.848Z,97713.44
2022-09-03T11:54:10.439Z,97725.25
2022-09-03T11:56:40.450Z,97734.94
2022-09-03T11:59:22.405Z,97746.09
2022-09-03T12:02:00.754Z,97755.47
2022-09-03T12:04:43.638Z,97767.97
2022-09-03T12:07:48.605Z,97776.63
2022-09-03T12:10:38.493Z,97779.09
2022-09-03T12:13:28.739Z,97777.88
2022-09-03T12:16:28.510Z,97785.22
2022-09-03T12:19:06.925Z,97780.97
2022-09-03T12:21:44.459Z,97799.88
2022-09-03T12:24:17.331Z,97807.78
2022-09-03T12:26:47.495Z,97808.75
2022-09-03T12:29:28.201Z,97814.59
2022-09-03T12:32:11.939Z,97838.13
2022-09-03T12:34:41.897Z,97831.69
2022-09-03T12:40:26.382Z,97818.41
2022-09-03T12:43:37.245Z,97828.06
2022-09-03T12:48:44.021Z,97825.75
2022-09-03T12:54:07.655Z,97817.47
2022-09-03T12:56:42.649Z,97828.22
2022-09-03T12:59:19.644Z,97829.78
2022-09-03T13:01:54.810Z,97830.41
2022-09-03T13:04:29.522Z,97839.97
2022-09-03T13:07:08.127Z,97844.28
2022-09-03T13:09:42.613Z,97834.94
2022-09-03T13:12:33.628Z,97831.66
2022-09-03T13:15:12.127Z,97836.19
2022-09-03T13:18:28.211Z,97829.34
2022-09-03T13:21:18.820Z,97840.78
2022-09-03T13:24:19.555Z,97844.91
2022-09-03T13:27:06.129Z,97852.56
2022-09-03T13:30:00.624Z,97845.06
2022-09-03T13:32:42.743Z,97843.00
2022-09-03T13:35:24.774Z,97842.41
2022-09-03T13:38:07.595Z,97855.06
2022-09-03T13:40:49.934Z,97846.91
2022-09-03T13:43:35.063Z,97850.00
2022-09-03T13:46:13.655Z,97849.81
2022-09-03T13:48:59.311Z,97838.03
2022-09-03T13:51:34.138Z,97845.84
2022-09-03T13:54:31.012Z,97849.78
2022-09-03T13:57:10.593Z,97851.13
2022-09-03T13:59:54.296Z,97837.94
2022-09-03T14:02:48.177Z,97827.63
2022-09-03T14:05:39.835Z,97828.81
2022-09-03T14:08:23.975Z,97827.84
2022-09-03T14:11:16.378Z,97820.56
2022-09-03T14:14:04.926Z,97821.72
2022-09-03T14:16:45.057Z,97820.50
2022-09-03T14:19:24.862Z,97832.81
2022-09-03T14:22:02.531Z,97827.97
2022-09-03T14:24:46.532Z,97814.31
2022-09-03T14:27:26.110Z,97822.34
2022-09-03T14:30:02.927Z,97829.28
2022-09-03T14:32:46.016Z,97826.19
2022-09-03T14:35:41.331Z,97816.53
2022-09-03T14:38:48.878Z,97813.34
2022-09-03T14:41:45.147Z,97809.03
2022-09-03T14:44:44.510Z,97806.88
2022-09-03T14:47:36.816Z,97805.81
2022-09-03T14:50:25.461Z,97798.78
2022-09-03T14:53:31.319Z,97786.56
2022-09-03T14:56:20.726Z,97781.69
2022-09-03T14:59:12.206Z,97798.06
2022-09-03T15:01:42.561Z,97789.53
2022-09-03T15:04:49.402Z,97797.38
2022-09-03T15:07:35.530Z,97795.28
2022-09-03T15:10:20.538Z,97790.31
2022-09-03T15:12:55.336Z,97798.31
2022-09-03T15:15:33.715Z,97799.72
2022-09-03T15:18:20.898Z,97798.00
2022-09-03T15:20:54.812Z,97784.69
2022-09-03T15:23:54.710Z,97792.22
2022-09-03T15:26:59.348Z,97784.66
2022-09-03T15:29:44.423Z,97785.69
2022-09-03T15:32:33.325Z,97789.44
2022-09-03T15:35:11.893Z,97789.56
2022-09-03T15:37:50.086Z,97784.72
2022-09-03T15:40:33.852Z,97789.84
2022-09-03T15:43:12.731Z,97785.38
2022-09-03T15:45:58.677Z,97791.25
2022-09-03T15:48:48.010Z,97798.09
2022-09-03T15:51:28.120Z,97793.38
2022-09-03T15:54:04.098Z,97793.88
2022-09-03T15:56:47.176Z,97796.03
2022-09-03T15:59:26.134Z,97799.81
2022-09-03T16:02:11.007Z,97794.91
2022-09-03T16:05:08.531Z,97784.03
2022-09-03T16:08:06.144Z,97793.25
2022-09-03T16:10:52.083Z,97793.50
2022-09-03T16:13:42.285Z,97794.38
2022-09-03T16:16:18.795Z,97793.03
2022-09-03T16:19:03.964Z,97798.88
2022-09-03T16:21:46.132Z,97801.28
2022-09-03T16:24:25.199Z,97801.84
2022-09-03T16:27:03.005Z,97801.63
2022-09-03T16:29:35.731Z,97796.59
2022-09-03T16:32:30.194Z,97795.59
2022-09-03T16:35:19.786Z,97792.22
2022-09-03T16:38:12.614Z,97797.13
2022-09-03T16:40:52.298Z,97782.94
2022-09-03T16:43:41.021Z,97785.03
2022-09-03T16:46:28.354Z,97778.69
2022-09-03T16:49:37.375Z,97786.47
2022-09-03T16:52:19.499Z,97795.94
2022-09-03T16:55:10.061Z,97793.06
2022-09-03T16:58:01.444Z,97792.56
2022-09-03T17:00:51.924Z,97793.25
2022-09-03T17:04:06.422Z,97790.44
2022-09-03T17:07:12.882Z,97799.00
2022-09-03T17:10:05.815Z,97799.13
2022-09-03T17:12:46.227Z,97803.13
2022-09-03T17:15:41.611Z,97809.59
2022-09-03T17:18:37.969Z,97805.69
2022-09-03T17:21:33.144Z,97807.03
2022-09-03T17:24:38.200Z,97803.56
2022-09-03T17:27:46.433Z,97808.81
2022-09-03T17:30:25.737Z,97807.91
2022-09-03T17:33:40.178Z,97803.75
2022-09-03T17:36:18.042Z,97810.44
2022-09-03T17:39:19.681Z,97806.78
2022-09-03T17:41:55.525Z,97814.50
2022-09-03T17:44:49.673Z,97810.22
2022-09-03T17:48:00.802Z,97820.09
2022-09-03T17:50:48.330Z,97827.94
2022-09-03T17:53:26.955Z,97834.97
2022-09-03T17:56:04.046Z,97833.94
2022-09-03T17:58:41.371Z,97837.50
2022-09-03T18:01:20.480Z,97840.03
2022-09-03T18:03:56.616Z,97834.81
2022-09-03T18:06:38.591Z,97844.56
2022-09-03T18:09:15.230Z,97850.19
2022-09-03T18:11:52.649Z,97854.66
2022-09-03T18:14:31.441Z,97854.09
2022-09-03T18:17:08.202Z,97859.63
2022-09-03T18:19:58.710Z,97859.50
2022-09-03T18:22:54.436Z,97856.28
2022-09-03T18:25:42.840Z,97864.66
2022-09-03T18:28:33.138Z,97867.50
2022-09-03T18:31:15.742Z,97869.22
2022-09-03T18:33:58.236Z,97872.44
2022-09-03T18:36:41.816Z,97869.78
2022-09-03T18:39:34.999Z,97878.47
2022-09-03T18:42:32.727Z,97878.31
2022-09-03T18:45:47.833Z,97880.03
2022-09-03T18:48:44.537Z,97881.75
2022-09-03T18:51:44.685Z,97877.84
2022-09-03T18:55:07.510Z,97879.81
2022-09-03T18:58:10.101Z,97883.63
2022-09-03T19:01:04.711Z,97888.94
2022-09-03T19:04:05.756Z,97894.66
2022-09-03T19:07:03.000Z,97888.75
2022-09-03T19:10:05.690Z,97892.72
2022-09-03T19:13:09.722Z,97897.06
2022-09-03T19:16:07.673Z,97896.06
2022-09-03T19:19:24.396Z,97899.25
2022-09-03T19:22:13.028Z,97910.66
2022-09-03T19:24:58.147Z,97902.94
2022-09-03T19:27:59.266Z,97907.84
2022-09-03T19:30:55.504Z,97904.50
2022-09-03T19:33:51.847Z,97904.75
2022-09-03T19:36:44.519Z,97910.13
2022-09-03T19:39:46.802Z,97918.53
2022-09-03T19:42:44.509Z,97920.22
2022-09-03T19:45:39.549Z,97922.50
2022-09-03T19:48:35.387Z,97925.22
2022-09-03T19:51:27.435Z,97933.94
2022-09-03T19:54:13.498Z,97937.75
2022-09-03T19:56:57.079Z,97934.75
2022-09-03T19:59:53.371Z,97932.53
2022-09-03T20:02:36.050Z,97933.38
2022-09-03T20:05:26.865Z,97936.88
2022-09-03T20:08:13.187Z,97940.56
2022-09-03T20:10:48.166Z,97938.81
2022-09-03T20:13:22.556Z,97943.41
2022-09-03T20:16:07.553Z,97943.06
2022-09-03T20:18:52.760Z,97948.88
2022-09-03T20:21:32.808Z,97945.16
2022-09-03T20:24:19.848Z,97944.97
2022-09-03T20:27:06.873Z,97948.91
2022-09-03T20:29:59.295Z,97940.63
2022-09-03T20:33:03.716Z,97945.31
2022-09-03T20:35:50.924Z,97953.34
2022-09-03T20:38:55.771Z,97964.41
2022-09-03T20:41:37.996Z,97962.28
2022-09-03T20:44:36.681Z,97970.66
2022-09-03T20:47:31.768Z,97970.00
2022-09-03T20:50:23.682Z,97974.81
2022-09-03T20:53:06.315Z,97969.09
2022-09-03T20:55:42.731Z,97974.94
2022-09-03T20:58:26.322Z,97984.63
2022-09-03T21:01:07.026Z,97972.69
2022-09-03T21:03:52.506Z,97977.47
2022-09-03T21:06:39.140Z,97976.56
2022-09-03T21:09:29.018Z,97983.50
2022-09-03T21:12:15.623Z,97979.38
2022-09-03T21:14:57.492Z,97982.75
2022-09-03T21:17:55.136Z,97979.03
2022-09-03T21:20:45.346Z,97979.38
2022-09-03T21:23:28.831Z,97985.31
2022-09-03T21:26:08.554Z,97989.53
2022-09-03T21:28:43.282Z,97995.78
2022-09-03T21:31:24.584Z,97982.84
2022-09-03T21:33:58.571Z,97996.91
2022-09-03T21:36:33.205Z,97991.63
2022-09-03T21:39:12.698Z,97988.25
2022-09-03T21:41:52.606Z,97992.81
2022-09-03T21:44:49.724Z,97995.16
2022-09-03T21:47:21.851Z,97996.28
2022-09-03T21:50:07.706Z,97995.91
2022-09-03T21:52:48.958Z,98000.34
2022-09-03T21:55:41.971Z,98008.13
2022-09-03T21:58:33.275Z,97998.59
2022-09-03T22:01:14.958Z,98007.59
2022-09-03T22:03:45.706Z,98017.56
2022-09-03T22:06:25.973Z,98022.09
2022-09-03T22:09:07.559Z,98027.44
2022-09-03T22:11:53.274Z,98024.66
2022-09-03T22:14:24.914Z,98032.56
2022-09-03T22:17:05.196Z,98034.91
2022-09-03T22:19:40.237Z,98034.72
2022-09-03T22:22:19.786Z,98034.81
2022-09-03T22:25:04.897Z,98050.78
2022-09-03T22:27:49.482Z,98049.78
2022-09-03T22:30:24.454Z,98048.88
2022-09-03T22:33:08.335Z,98037.34
2022-09-03T22:36:16.295Z,98037.75
2022-09-03T22:39:20.037Z,98033.28
2022-09-03T22:42:30.862Z,98034.88
2022-09-03T22:45:28.031Z,98028.16
2022-09-03T22:48:23.765Z,98038.91
2022-09-03T22:51:00.015Z,98027.81
2022-09-03T22:53:54.680Z,98032.28
2022-09-03T22:56:25.458Z,98027.69
2022-09-03T22:59:01.982Z,98035.63
2022-09-03T23:01:42.685Z,98042.25
2022-09-03T23:04:24.982Z,98035.00
2022-09-03T23:07:05.504Z,98039.56
2022-09-03T23:09:42.422Z,98036.66
2022-09-03T23:12:20.296Z,98043.41
2022-09-03T23:14:56.597Z,98047.72
2022-09-03T23:22:48.203Z,98042.63
2022-09-03T23:25:24.506Z,98043.72
2022-09-03T23:28:03.779Z,98044.31
2022-09-03T23:30:33.878Z,98044.44
2022-09-03T23:33:06.542Z,98055.94
2022-09-03T23:35:48.995Z,98054.78
2022-09-03T23:38:34.408Z,98045.84
2022-09-03T23:41:10.625Z,98048.72
2022-09-03T23:44:18.731Z,98050.16
2022-09-03T23:47:08.056Z,98053.63
2022-09-03T23:49:56.255Z,98049.81
2022-09-03T23:53:11.959Z,98051.91
2022-09-03T23:56:05.186Z,98055.13
2022-09-03T23:58:55.615Z,98061.16
